Time;durP1;ratioP1;P1;durP2;ratioP2;P2;SDS_P1;SDS_P2;PMS_P1;PMS_P2;Temp;Humidity;BMP_temperature;BMP_pressure;BME280_temperature;BME280_humidity;BME280_pressure;Samples;Min_cycle;Max_cycle;Signal;HPM_P1;HPM_P2
2022/01/17 00:00:53;;;;;;;1.00;0.90;;;2.60;99.90;;;;;;5111444;28;20396;-73
2022/01/17 00:03:24;;;;;;;0.40;0.40;;;2.70;99.90;;;;;;5111238;28;20373;-73
2022/01/17 00:05:51;;;;;;;0.60;0.60;;;2.50;99.90;;;;;;5110573;28;20832;-72
2022/01/17 00:08:17;;;;;;;0.40;0.40;;;2.50;99.90;;;;;;5110968;28;20385;-72
2022/01/17 00:10:43;;;;;;;0.40;0.40;;;2.50;99.90;;;;;;5110525;28;20443;-72
2022/01/17 00:13:11;;;;;;;0.60;0.50;;;2.50;99.90;;;;;;5111246;28;20423;-73
2022/01/17 00:15:49;;;;;;;0.70;0.70;;;2.60;99.90;;;;;;5109017;28;20412;-74
2022/01/17 00:20:46;;;;;;;0.50;0.50;;;2.60;99.90;;;;;;5110778;28;20825;-73
2022/01/17 00:23:16;;;;;;;0.40;0.30;;;2.60;99.90;;;;;;5111576;28;20415;-73
2022/01/17 00:25:42;;;;;;;0.40;0.40;;;2.50;99.90;;;;;;5110478;28;20861;-73
2022/01/17 00:28:07;;;;;;;0.40;0.40;;;2.50;99.90;;;;;;5111245;28;20399;-73
2022/01/17 00:30:33;;;;;;;0.40;0.30;;;2.50;99.90;;;;;;5111259;28;20391;-73
2022/01/17 00:32:59;;;;;;;1.10;0.80;;;2.50;99.90;;;;;;5110662;28;20406;-73
2022/01/17 00:35:25;;;;;;;0.40;0.30;;;2.70;99.90;;;;;;5110834;28;20697;-73
2022/01/17 00:37:52;;;;;;;0.40;0.30;;;2.70;99.90;;;;;;5110325;28;20778;-73
2022/01/17 00:40:18;;;;;;;0.40;0.30;;;2.70;99.90;;;;;;5111357;28;20376;-73
2022/01/17 00:42:44;;;;;;;0.40;0.20;;;2.60;99.90;;;;;;5110984;28;20372;-74
2022/01/17 00:45:13;;;;;;;0.50;0.50;;;2.70;99.90;;;;;;5077013;28;20447;-73
2022/01/17 00:47:39;;;;;;;0.40;0.30;;;2.60;99.90;;;;;;5072498;28;20909;-73
2022/01/17 00:50:05;;;;;;;0.40;0.30;;;2.60;99.90;;;;;;5071910;28;20425;-73
2022/01/17 00:52:31;;;;;;;0.60;0.50;;;2.60;99.90;;;;;;5090691;28;20378;-73
2022/01/17 00:54:57;;;;;;;0.57;0.57;;;2.60;99.90;;;;;;5089820;28;20427;-73
2022/01/17 00:57:22;;;;;;;0.47;0.25;;;2.60;99.90;;;;;;5090555;28;20378;-73
2022/01/17 00:59:48;;;;;;;0.40;0.30;;;2.60;99.90;;;;;;5072254;28;20393;-73
2022/01/17 01:02:14;;;;;;;0.70;0.70;;;2.60;99.90;;;;;;5071500;28;20382;-73
2022/01/17 01:04:39;;;;;;;1.10;0.70;;;2.70;99.90;;;;;;5090282;28;20378;-73
2022/01/17 01:07:05;;;;;;;0.40;0.30;;;2.60;99.90;;;;;;5089829;28;20427;-73
2022/01/17 01:09:36;;;;;;;0.70;0.70;;;2.60;99.90;;;;;;5091664;28;20370;-73
2022/01/17 01:12:02;;;;;;;0.40;0.30;;;2.70;99.90;;;;;;5089560;28;20389;-74
2022/01/17 01:14:28;;;;;;;0.80;0.70;;;2.60;99.90;;;;;;5090045;28;20406;-73
2022/01/17 01:16:56;;;;;;;0.70;0.70;;;2.60;99.90;;;;;;5090244;28;20422;-72
2022/01/17 01:27:43;;;;;;;0.40;0.30;;;2.60;99.90;;;;;;5057514;28;20393;-72
2022/01/17 01:30:12;;;;;;;0.40;0.20;;;2.70;99.90;;;;;;5089950;28;20439;-73
2022/01/17 01:32:45;;;;;;;0.40;0.20;;;2.60;99.90;;;;;;5089886;28;20381;-73
2022/01/17 01:35:14;;;;;;;0.40;0.20;;;2.70;99.90;;;;;;5090124;28;20502;-73
2022/01/17 01:37:39;;;;;;;0.60;0.50;;;2.70;99.90;;;;;;5071008;28;20524;-73
2022/01/17 01:40:06;;;;;;;0.65;0.65;;;2.60;99.90;;;;;;5072026;28;20662;-71
2022/01/17 01:42:33;;;;;;;0.70;0.50;;;2.60;99.90;;;;;;5088614;28;20370;-72
2022/01/17 01:45:01;;;;;;;0.40;0.40;;;2.60;99.90;;;;;;5103469;28;20431;-72
2022/01/17 01:47:28;;;;;;;0.40;0.20;;;2.70;99.90;;;;;;5109739;28;20391;-72
2022/01/17 01:49:54;;;;;;;0.80;0.80;;;2.70;99.90;;;;;;5109927;28;20835;-72
2022/01/17 01:52:19;;;;;;;0.40;0.40;;;2.60;99.90;;;;;;5110409;28;20389;-72
2022/01/17 01:54:46;;;;;;;0.40;0.30;;;2.70;99.90;;;;;;5109616;28;20380;-72
2022/01/17 01:57:12;;;;;;;0.75;0.65;;;2.60;99.90;;;;;;5110493;28;20424;-72
2022/01/17 01:59:38;;;;;;;0.40;0.20;;;2.50;99.90;;;;;;5109752;28;20387;-71
2022/01/17 02:02:05;;;;;;;0.40;0.40;;;2.50;99.90;;;;;;5110692;28;20408;-71
2022/01/17 02:04:31;;;;;;;0.80;0.80;;;2.50;99.90;;;;;;5109974;28;20383;-74
2022/01/17 02:06:57;;;;;;;0.40;0.30;;;2.40;99.90;;;;;;5110581;28;20376;-72
2022/01/17 02:09:23;;;;;;;0.47;0.47;;;2.30;99.90;;;;;;5110529;28;20384;-73
2022/01/17 02:11:50;;;;;;;1.35;1.30;;;2.40;99.90;;;;;;5091904;28;20384;-73
2022/01/17 02:14:16;;;;;;;0.40;0.35;;;2.40;99.90;;;;;;5092254;28;20498;-72
2022/01/17 02:16:44;;;;;;;0.40;0.20;;;2.40;99.90;;;;;;5091416;28;20487;-72
2022/01/17 02:19:10;;;;;;;0.40;0.20;;;2.30;99.90;;;;;;5110583;28;20384;-72
2022/01/17 02:21:49;;;;;;;0.50;0.50;;;2.50;99.90;;;;;;5110495;28;20433;-72
2022/01/17 02:24:18;;;;;;;0.40;0.20;;;2.50;99.90;;;;;;5110363;28;20372;-72
2022/01/17 02:26:45;;;;;;;0.40;0.40;;;2.40;99.90;;;;;;5109596;28;20855;-74
2022/01/17 02:29:11;;;;;;;0.50;0.50;;;2.30;99.90;;;;;;5110178;28;20395;-72
2022/01/17 02:31:37;;;;;;;0.40;0.20;;;2.40;99.90;;;;;;5110139;28;20455;-72
2022/01/17 02:34:03;;;;;;;0.40;0.30;;;2.30;99.90;;;;;;5109460;28;20476;-72
2022/01/17 02:36:30;;;;;;;1.10;0.70;;;2.30;99.90;;;;;;5091758;28;20401;-72
2022/01/17 02:38:56;;;;;;;0.40;0.30;;;2.30;99.90;;;;;;5109883;28;20388;-73
2022/01/17 02:41:22;;;;;;;1.10;1.00;;;2.30;99.90;;;;;;5095546;28;20377;-72
2022/01/17 02:43:48;;;;;;;1.65;1.55;;;2.20;99.90;;;;;;5091941;28;20405;-72
2022/01/17 02:46:24;;;;;;;0.57;0.50;;;2.20;99.90;;;;;;5092271;28;20397;-72
2022/01/17 02:48:50;;;;;;;0.40;0.40;;;2.30;99.90;;;;;;5093263;28;20464;-72
2022/01/17 02:51:16;;;;;;;0.40;0.30;;;2.20;99.90;;;;;;5074301;28;20469;-72
2022/01/17 02:53:42;;;;;;;0.40;0.20;;;2.10;99.90;;;;;;5093165;28;20387;-72
2022/01/17 02:56:09;;;;;;;0.43;0.43;;;2.10;99.90;;;;;;5074144;28;20405;-72
2022/01/17 02:58:37;;;;;;;0.40;0.20;;;2.10;99.90;;;;;;5074709;28;20450;-72
2022/01/17 03:01:18;;;;;;;0.50;0.50;;;2.10;99.90;;;;;;5074272;28;20465;-74
2022/01/17 03:03:44;;;;;;;0.40;0.20;;;2.10;99.90;;;;;;5074916;28;20386;-72
2022/01/17 03:06:12;;;;;;;0.40;0.20;;;2.10;99.90;;;;;;5074113;28;20734;-72
2022/01/17 03:08:38;;;;;;;0.40;0.40;;;2.10;99.90;;;;;;5092689;28;20382;-72
2022/01/17 03:11:05;;;;;;;0.40;0.40;;;2.10;99.90;;;;;;5074752;28;20389;-72
2022/01/17 03:13:37;;;;;;;0.40;0.30;;;2.10;99.90;;;;;;5092192;28;20389;-72
2022/01/17 03:16:12;;;;;;;0.40;0.20;;;2.00;99.90;;;;;;5092944;28;20445;-71
2022/01/17 03:18:42;;;;;;;0.70;0.60;;;2.00;99.90;;;;;;5074558;28;20730;-72
2022/01/17 03:21:10;;;;;;;0.40;0.30;;;2.10;99.90;;;;;;5074651;28;20461;-72
2022/01/17 03:23:37;;;;;;;1.00;0.90;;;2.20;99.90;;;;;;5092053;28;20384;-72
2022/01/17 03:26:04;;;;;;;0.70;0.70;;;2.10;99.90;;;;;;5092736;28;20386;-71
2022/01/17 03:28:30;;;;;;;1.55;1.45;;;2.00;99.90;;;;;;5091872;28;20374;-72
2022/01/17 03:30:56;;;;;;;1.17;1.08;;;2.10;99.90;;;;;;5092487;28;20390;-72
2022/01/17 03:33:22;;;;;;;0.40;0.20;;;2.10;99.90;;;;;;5091829;28;20378;-73
2022/01/17 03:35:48;;;;;;;0.80;0.80;;;1.90;99.90;;;;;;5092370;28;20410;-72
2022/01/17 03:38:17;;;;;;;0.40;0.20;;;1.90;99.90;;;;;;5092529;28;20378;-72
2022/01/17 03:40:46;;;;;;;0.50;0.50;;;1.90;99.90;;;;;;5091504;28;20518;-72
2022/01/17 03:43:12;;;;;;;0.40;0.20;;;1.90;99.90;;;;;;5092431;28;20432;-73
2022/01/17 03:45:38;;;;;;;0.50;0.50;;;1.90;99.90;;;;;;5110381;28;20440;-73
2022/01/17 03:48:04;;;;;;;0.40;0.20;;;1.90;99.90;;;;;;5112469;28;20384;-73
2022/01/17 03:50:29;;;;;;;0.40;0.20;;;1.80;99.90;;;;;;5077105;28;20737;-75
2022/01/17 03:52:55;;;;;;;0.40;0.20;;;1.70;99.90;;;;;;5112410;28;20380;-73
2022/01/17 03:55:22;;;;;;;0.90;0.90;;;1.70;99.90;;;;;;5112148;28;20462;-73
2022/01/17 03:57:48;;;;;;;1.40;0.80;;;1.70;99.90;;;;;;5111835;28;20492;-73
2022/01/17 04:00:27;;;;;;;0.47;0.47;;;1.70;99.90;;;;;;5112232;28;20492;-73
2022/01/17 04:02:53;;;;;;;0.40;0.20;;;1.60;99.90;;;;;;5111824;28;20376;-73
2022/01/17 04:05:19;;;;;;;0.40;0.30;;;1.40;99.90;;;;;;5112211;28;20383;-73
2022/01/17 04:07:45;;;;;;;0.40;0.30;;;1.40;99.90;;;;;;5111454;28;20373;-74
2022/01/17 04:10:12;;;;;;;0.80;0.80;;;1.40;99.90;;;;;;5112082;28;20380;-73
2022/01/17 04:12:39;;;;;;;0.90;0.70;;;1.30;99.90;;;;;;5112210;28;20384;-73
2022/01/17 04:15:06;;;;;;;0.40;0.20;;;1.30;99.90;;;;;;5110491;28;20444;-72
2022/01/17 04:17:32;;;;;;;0.50;0.50;;;1.20;99.90;;;;;;5093991;28;20388;-71
2022/01/17 04:20:05;;;;;;;0.70;0.70;;;1.20;99.90;;;;;;5110812;28;20430;-72
2022/01/17 04:22:37;;;;;;;0.60;0.60;;;1.00;99.90;;;;;;5093811;28;20873;-72
2022/01/17 04:25:05;;;;;;;0.60;0.50;;;0.90;99.90;;;;;;5111054;28;20421;-71
2022/01/17 04:27:31;;;;;;;1.50;0.60;;;0.90;99.90;;;;;;5111833;28;20583;-73
2022/01/17 04:29:57;;;;;;;0.45;0.35;;;0.90;99.90;;;;;;5111049;28;20372;-73
2022/01/17 04:32:23;;;;;;;1.10;1.10;;;0.90;99.90;;;;;;5093844;28;20718;-73
2022/01/17 04:34:49;;;;;;;0.40;0.30;;;0.90;99.90;;;;;;5111808;28;20379;-72
2022/01/17 04:37:15;;;;;;;0.40;0.20;;;0.90;99.90;;;;;;5111098;28;20426;-72
2022/01/17 04:39:40;;;;;;;0.40;0.20;;;0.80;99.90;;;;;;5093425;28;20384;-72
2022/01/17 04:42:12;;;;;;;0.40;0.20;;;0.80;99.90;;;;;;5111099;28;20431;-72
2022/01/17 04:47:29;;;;;;;0.40;0.20;;;0.80;99.90;;;;;;5090972;28;20381;-71
2022/01/17 04:49:57;;;;;;;0.40;0.20;;;0.80;99.90;;;;;;5091327;28;20378;-71
2022/01/17 04:52:24;;;;;;;0.40;0.32;;;0.70;99.90;;;;;;5090289;28;20409;-71
2022/01/17 04:54:54;;;;;;;0.40;0.20;;;0.90;99.90;;;;;;5091093;28;20382;-72
2022/01/17 04:57:21;;;;;;;0.60;0.60;;;0.90;99.90;;;;;;5090059;28;20889;-72
2022/01/17 04:59:48;;;;;;;0.55;0.55;;;1.10;99.90;;;;;;5091043;28;20441;-72
2022/01/17 05:02:15;;;;;;;0.40;0.20;;;1.40;99.90;;;;;;5090015;28;20904;-73
2022/01/17 05:04:41;;;;;;;0.40;0.20;;;1.70;99.90;;;;;;5091067;28;20402;-71
2022/01/17 05:07:07;;;;;;;0.40;0.20;;;1.90;99.90;;;;;;5091055;28;20417;-71
2022/01/17 05:09:33;;;;;;;1.80;0.60;;;2.00;99.90;;;;;;5072212;28;20382;-72
2022/01/17 05:12:02;;;;;;;0.40;0.20;;;2.00;99.90;;;;;;5091176;28;20390;-73
2022/01/17 05:14:28;;;;;;;0.55;0.45;;;2.10;99.90;;;;;;5071855;28;20507;-73
2022/01/17 05:17:02;;;;;;;0.40;0.30;;;2.00;99.90;;;;;;5072332;28;20421;-73
2022/01/17 05:22:12;;;;;;;0.50;0.50;;;2.10;99.90;;;;;;5091069;28;20873;-73
2022/01/17 05:24:38;;;;;;;0.40;0.20;;;2.20;99.90;;;;;;5090211;28;20386;-73
2022/01/17 05:27:04;;;;;;;0.40;0.30;;;2.10;99.90;;;;;;5090907;28;20386;-73
2022/01/17 05:29:29;;;;;;;0.68;0.57;;;2.00;99.90;;;;;;5090532;28;20378;-75
2022/01/17 05:31:55;;;;;;;0.40;0.30;;;2.00;99.90;;;;;;5102976;28;20376;-73
2022/01/17 05:34:21;;;;;;;0.40;0.20;;;2.10;99.90;;;;;;5086541;28;20386;-73
2022/01/17 05:36:46;;;;;;;0.40;0.20;;;2.10;99.90;;;;;;5089796;28;20409;-74
2022/01/17 05:39:12;;;;;;;0.40;0.30;;;2.10;99.90;;;;;;5091004;28;20396;-73
2022/01/17 05:41:38;;;;;;;0.40;0.30;;;2.10;99.90;;;;;;5090280;28;20378;-75
2022/01/17 05:44:04;;;;;;;0.60;0.60;;;2.10;99.90;;;;;;5094227;28;20518;-73
2022/01/17 05:46:29;;;;;;;1.50;0.50;;;2.10;99.90;;;;;;5085581;28;20467;-73
2022/01/17 05:48:55;;;;;;;0.60;0.60;;;2.00;99.90;;;;;;5110221;28;20797;-73
2022/01/17 05:51:21;;;;;;;0.40;0.20;;;1.90;99.90;;;;;;5110969;28;20755;-73
2022/01/17 05:53:46;;;;;;;0.40;0.20;;;2.00;99.90;;;;;;5110317;28;20414;-75
2022/01/17 05:56:12;;;;;;;0.50;0.40;;;2.10;99.90;;;;;;5109892;28;20404;-73
2022/01/17 05:58:38;;;;;;;0.40;0.30;;;2.10;99.90;;;;;;5110961;28;20376;-73
2022/01/17 06:01:04;;;;;;;0.43;0.43;;;2.10;99.90;;;;;;5110017;28;20751;-73
2022/01/17 06:03:29;;;;;;;0.40;0.20;;;2.20;99.90;;;;;;5095013;28;20379;-73
2022/01/17 06:05:55;;;;;;;0.40;0.30;;;2.10;99.90;;;;;;5089463;28;20390;-74
2022/01/17 06:08:21;;;;;;;0.40;0.20;;;2.20;99.90;;;;;;5090443;28;20374;-73
2022/01/17 06:10:46;;;;;;;2.17;0.90;;;2.20;99.90;;;;;;5090425;28;20374;-73
2022/01/17 06:13:12;;;;;;;0.60;0.60;;;2.30;99.90;;;;;;5089194;28;20389;-73
2022/01/17 06:15:39;;;;;;;0.40;0.20;;;2.20;99.90;;;;;;5093274;28;20422;-73
2022/01/17 06:18:05;;;;;;;0.40;0.20;;;2.20;99.90;;;;;;5096039;28;20922;-73
2022/01/17 06:20:31;;;;;;;0.50;0.40;;;2.20;99.90;;;;;;5107884;28;20460;-73
2022/01/17 06:22:56;;;;;;;0.40;0.20;;;2.10;99.90;;;;;;5108888;28;20376;-73
2022/01/17 06:25:22;;;;;;;0.40;0.20;;;2.10;99.90;;;;;;5110393;28;20380;-73
2022/01/17 06:27:48;;;;;;;0.50;0.40;;;2.20;99.90;;;;;;5114295;28;20789;-73
2022/01/17 06:30:13;;;;;;;0.40;0.20;;;2.20;99.90;;;;;;5113303;28;20380;-73
2022/01/17 06:32:40;;;;;;;0.40;0.20;;;2.10;99.90;;;;;;5095885;28;20377;-72
2022/01/17 06:35:06;;;;;;;0.90;0.80;;;2.10;99.90;;;;;;5086672;28;20510;-73
2022/01/17 06:37:32;;;;;;;1.60;1.00;;;2.10;99.90;;;;;;5099382;28;20420;-73
2022/01/17 06:39:58;;;;;;;0.40;0.30;;;2.10;99.90;;;;;;5100286;28;20417;-73
2022/01/17 06:42:24;;;;;;;0.40;0.30;;;2.10;99.90;;;;;;5098704;28;20382;-73
2022/01/17 06:44:50;;;;;;;0.40;0.20;;;2.10;99.90;;;;;;5096937;28;20453;-73
2022/01/17 06:47:16;;;;;;;0.80;0.60;;;2.20;99.90;;;;;;5097372;28;20405;-76
2022/01/17 06:49:42;;;;;;;0.75;0.75;;;2.20;99.90;;;;;;5075411;28;20386;-73
2022/01/17 06:52:08;;;;;;;0.40;0.20;;;2.20;99.90;;;;;;5075288;28;20463;-73
2022/01/17 06:54:34;;;;;;;2.70;1.40;;;2.10;99.90;;;;;;5096169;28;20459;-73
2022/01/17 06:56:59;;;;;;;0.60;0.60;;;2.10;99.90;;;;;;5103344;28;20408;-73
2022/01/17 06:59:25;;;;;;;0.40;0.40;;;2.10;99.90;;;;;;5097869;28;20431;-73
2022/01/17 07:01:51;;;;;;;0.40;0.40;;;2.10;99.90;;;;;;5093277;28;20736;-72
2022/01/17 07:04:17;;;;;;;0.40;0.20;;;2.20;99.90;;;;;;5075129;28;20385;-73
2022/01/17 07:06:43;;;;;;;1.13;1.03;;;2.20;99.90;;;;;;5077878;28;20430;-73
2022/01/17 07:09:11;;;;;;;0.40;0.40;;;2.10;99.90;;;;;;5101999;28;20378;-72
2022/01/17 07:11:38;;;;;;;0.60;0.60;;;2.20;99.90;;;;;;5101050;28;20382;-73
2022/01/17 07:14:11;;;;;;;0.40;0.30;;;2.10;99.90;;;;;;5102653;28;20404;-72
2022/01/17 07:16:39;;;;;;;2.80;0.80;;;2.10;99.90;;;;;;5100296;28;20526;-73
2022/01/17 07:19:05;;;;;;;0.40;0.20;;;2.00;99.90;;;;;;5102527;28;20362;-73
2022/01/17 07:21:32;;;;;;;0.40;0.20;;;2.10;99.90;;;;;;5104400;28;20736;-73
2022/01/17 07:23:59;;;;;;;0.40;0.20;;;2.20;99.90;;;;;;5101757;28;20382;-73
2022/01/17 07:26:25;;;;;;;0.40;0.30;;;2.10;99.90;;;;;;5100619;28;20447;-73
2022/01/17 07:28:51;;;;;;;0.40;0.30;;;2.20;99.90;;;;;;5110906;28;20398;-72
2022/01/17 07:31:17;;;;;;;0.40;0.30;;;2.10;99.90;;;;;;5113161;28;20729;-72
2022/01/17 07:33:42;;;;;;;0.40;0.20;;;2.30;99.90;;;;;;5111812;28;20368;-73
2022/01/17 07:36:08;;;;;;;0.60;0.50;;;2.20;99.90;;;;;;5094354;28;20545;-72
2022/01/17 07:38:35;;;;;;;0.40;0.20;;;2.20;99.90;;;;;;5112888;28;20377;-73
2022/01/17 07:41:01;;;;;;;0.60;0.50;;;2.30;99.90;;;;;;5112305;28;20438;-73
2022/01/17 07:43:27;;;;;;;0.40;0.20;;;2.20;99.90;;;;;;5093926;28;20467;-73
2022/01/17 07:46:04;;;;;;;0.40;0.20;;;2.30;99.90;;;;;;5091852;28;20521;-73
2022/01/17 07:51:11;;;;;;;2.30;1.40;;;2.20;99.90;;;;;;5096176;28;21000;-73
2022/01/17 07:53:37;;;;;;;0.90;0.80;;;2.30;99.90;;;;;;5092153;28;20409;-73
2022/01/17 07:56:04;;;;;;;0.50;0.50;;;2.30;99.90;;;;;;5091658;28;20402;-72
2022/01/17 07:58:30;;;;;;;0.40;0.20;;;2.20;99.90;;;;;;5092202;28;20385;-73
2022/01/17 08:00:55;;;;;;;0.40;0.20;;;2.30;99.90;;;;;;5091541;28;20378;-74
2022/01/17 08:03:21;;;;;;;0.40;0.20;;;2.40;99.90;;;;;;5074251;28;20863;-73
2022/01/17 08:05:47;;;;;;;0.50;0.50;;;2.40;99.90;;;;;;5092026;28;20402;-74
2022/01/17 08:08:13;;;;;;;0.40;0.20;;;2.30;99.90;;;;;;5096312;28;20500;-73
2022/01/17 08:10:38;;;;;;;2.40;1.30;;;2.40;99.90;;;;;;5101981;28;20380;-73
2022/01/17 08:13:04;;;;;;;0.43;0.27;;;2.50;99.90;;;;;;5110935;28;20772;-73
2022/01/17 08:15:34;;;;;;;0.50;0.47;;;2.40;99.90;;;;;;5111908;28;20416;-73
2022/01/17 08:18:00;;;;;;;0.50;0.50;;;2.50;99.90;;;;;;5111329;28;20388;-75
2022/01/17 08:20:25;;;;;;;0.90;0.80;;;2.70;99.90;;;;;;5111880;28;20771;-73
2022/01/17 08:22:51;;;;;;;0.70;0.70;;;2.60;99.90;;;;;;5094107;28;20380;-73
2022/01/17 08:25:17;;;;;;;0.40;0.20;;;2.70;99.90;;;;;;5111371;28;20368;-73
2022/01/17 08:27:43;;;;;;;0.40;0.30;;;2.70;99.90;;;;;;5111979;28;20911;-73
2022/01/17 08:30:10;;;;;;;0.40;0.20;;;2.70;99.90;;;;;;5111211;28;20404;-75
2022/01/17 08:32:35;;;;;;;0.40;0.30;;;2.80;99.90;;;;;;5112023;28;20725;-73
2022/01/17 08:35:01;;;;;;;0.80;0.80;;;2.80;99.90;;;;;;5111927;28;20472;-73
2022/01/17 08:37:30;;;;;;;0.40;0.30;;;2.80;99.90;;;;;;5110648;28;20439;-73
2022/01/17 08:39:57;;;;;;;0.40;0.30;;;2.90;99.90;;;;;;5112121;28;20376;-73
2022/01/17 08:42:23;;;;;;;0.73;0.43;;;2.90;99.90;;;;;;5092873;28;20405;-73
2022/01/17 08:44:51;;;;;;;0.60;0.60;;;3.00;99.90;;;;;;5100374;28;20595;-73
2022/01/17 08:47:18;;;;;;;0.60;0.60;;;3.10;99.90;;;;;;5090714;28;20390;-73
2022/01/17 08:49:44;;;;;;;1.40;1.30;;;3.20;99.90;;;;;;5091018;28;20418;-72
2022/01/17 08:52:10;;;;;;;0.40;0.30;;;3.30;99.90;;;;;;5091672;28;20378;-72
2022/01/17 08:54:36;;;;;;;1.70;0.90;;;3.30;99.90;;;;;;5090989;28;20412;-72
2022/01/17 08:57:03;;;;;;;0.60;0.60;;;3.30;99.90;;;;;;5091513;28;20466;-72
2022/01/17 08:59:30;;;;;;;1.00;0.80;;;3.30;99.90;;;;;;5090674;28;20436;-73
2022/01/17 09:01:56;;;;;;;0.40;0.22;;;3.50;99.90;;;;;;5091254;28;20444;-72
2022/01/17 09:04:21;;;;;;;0.40;0.20;;;3.60;99.90;;;;;;5090557;28;20374;-74
2022/01/17 09:06:47;;;;;;;1.20;0.70;;;3.70;99.90;;;;;;5091550;28;20463;-72
2022/01/17 09:09:13;;;;;;;0.80;0.73;;;3.70;99.90;;;;;;5091375;28;20386;-72
2022/01/17 09:11:39;;;;;;;0.40;0.30;;;3.80;99.90;;;;;;5090606;28;20373;-72
2022/01/17 09:14:04;;;;;;;0.40;0.30;;;3.80;99.90;;;;;;5090753;28;20386;-72
2022/01/17 09:16:31;;;;;;;0.40;0.30;;;3.60;99.90;;;;;;5072258;28;20428;-73
2022/01/17 09:18:56;;;;;;;0.40;0.20;;;3.70;99.90;;;;;;5072959;28;20378;-73
2022/01/17 09:21:22;;;;;;;0.50;0.50;;;3.80;99.90;;;;;;5072871;28;20941;-72
2022/01/17 09:23:49;;;;;;;0.40;0.20;;;3.70;99.90;;;;;;5090073;28;20397;-73
2022/01/17 09:26:15;;;;;;;0.40;0.30;;;3.90;99.90;;;;;;5091001;28;20386;-72
2022/01/17 09:28:42;;;;;;;1.00;0.90;;;4.10;99.90;;;;;;5090113;28;20378;-72
2022/01/17 09:31:08;;;;;;;0.40;0.30;;;4.00;99.90;;;;;;5091165;28;20382;-72
2022/01/17 09:33:34;;;;;;;0.40;0.30;;;4.20;99.90;;;;;;5090186;28;20385;-73
2022/01/17 09:36:00;;;;;;;0.90;0.80;;;4.30;99.90;;;;;;5090940;28;20410;-72
2022/01/17 09:38:25;;;;;;;0.50;0.50;;;4.30;99.90;;;;;;5090504;28;20514;-72
2022/01/17 09:40:51;;;;;;;0.50;0.50;;;4.40;99.90;;;;;;5089987;28;20393;-72
2022/01/17 09:43:17;;;;;;;0.50;0.50;;;4.10;99.90;;;;;;5090598;28;20406;-72
2022/01/17 09:45:43;;;;;;;0.70;0.70;;;3.90;99.90;;;;;;5089869;28;20835;-72
2022/01/17 09:48:09;;;;;;;0.40;0.30;;;4.00;99.90;;;;;;5091982;28;20386;-72
2022/01/17 09:50:46;;;;;;;0.77;0.77;;;4.10;99.90;;;;;;5094623;28;20389;-72
2022/01/17 09:53:17;;;;;;;0.70;0.70;;;4.30;99.90;;;;;;5094566;28;20374;-72
2022/01/17 09:55:43;;;;;;;0.40;0.22;;;4.40;99.90;;;;;;5093735;28;20441;-72
2022/01/17 09:58:10;;;;;;;2.80;0.90;;;4.40;99.90;;;;;;5094760;28;20382;-72
2022/01/17 10:00:41;;;;;;;1.50;1.40;;;4.20;99.90;;;;;;5094474;28;20423;-72
2022/01/17 10:03:12;;;;;;;0.40;0.40;;;4.20;99.90;;;;;;5094029;28;20373;-72
2022/01/17 10:05:38;;;;;;;0.40;0.30;;;4.20;99.90;;;;;;5094502;28;20402;-72
2022/01/17 10:08:08;;;;;;;0.40;0.30;;;4.10;99.90;;;;;;5093509;28;20441;-71
2022/01/17 10:10:37;;;;;;;0.40;0.20;;;4.30;99.90;;;;;;5094472;28;20470;-72
2022/01/17 10:13:24;;;;;;;1.00;1.00;;;4.40;99.90;;;;;;5093639;28;20385;-72
2022/01/17 10:16:09;;;;;;;0.40;0.40;;;4.50;99.90;;;;;;5092345;28;20425;-73
2022/01/17 10:18:45;;;;;;;0.40;0.22;;;4.40;99.90;;;;;;5094279;28;20894;-73
2022/01/17 10:21:19;;;;;;;0.40;0.40;;;4.60;99.90;;;;;;5093434;28;20378;-73
2022/01/17 10:37:14;;;;;;;0.40;0.30;;;4.80;99.90;;;;;;5093072;28;20451;-73
2022/01/17 10:39:55;;;;;;;0.60;0.40;;;5.00;99.90;;;;;;5094063;28;20378;-73
2022/01/17 10:42:39;;;;;;;0.40;0.30;;;5.20;99.90;;;;;;5093180;28;20445;-73
2022/01/17 10:45:12;;;;;;;0.40;0.38;;;5.40;99.90;;;;;;5107024;28;20400;-73
2022/01/17 10:47:43;;;;;;;0.50;0.50;;;5.30;99.90;;;;;;5095719;28;20402;-73
2022/01/17 10:50:16;;;;;;;0.40;0.30;;;5.30;99.90;;;;;;5095080;28;20416;-73
2022/01/17 10:52:46;;;;;;;0.80;0.60;;;5.40;99.90;;;;;;5114024;28;20460;-73
2022/01/17 10:55:27;;;;;;;0.40;0.20;;;5.30;99.90;;;;;;5113083;28;20381;-73
2022/01/17 10:57:56;;;;;;;0.40;0.20;;;5.20;99.90;;;;;;5114157;28;20526;-73
2022/01/17 11:00:27;;;;;;;0.40;0.30;;;5.30;99.90;;;;;;5094173;28;20470;-73
2022/01/17 11:02:56;;;;;;;0.50;0.50;;;5.10;99.90;;;;;;5113855;28;20388;-73
2022/01/17 11:05:22;;;;;;;0.40;0.22;;;5.30;99.90;;;;;;5112776;28;20468;-73
2022/01/17 11:07:52;;;;;;;0.40;0.30;;;5.30;99.90;;;;;;5113894;28;20376;-73
2022/01/17 11:10:22;;;;;;;0.40;0.30;;;5.10;99.90;;;;;;5112950;28;20376;-73
2022/01/17 11:12:50;;;;;;;0.40;0.25;;;5.10;99.90;;;;;;5095414;28;20474;-73
2022/01/17 11:15:17;;;;;;;1.30;1.00;;;5.00;99.90;;;;;;5112577;28;20425;-73
2022/01/17 11:17:49;;;;;;;0.67;0.67;;;4.90;99.90;;;;;;5113990;28;20380;-73
2022/01/17 11:20:17;;;;;;;0.40;0.30;;;5.00;99.90;;;;;;5112759;28;20406;-75
2022/01/17 11:22:44;;;;;;;0.40;0.20;;;5.10;99.90;;;;;;5113669;28;20723;-73
2022/01/17 11:25:17;;;;;;;0.40;0.30;;;5.00;99.90;;;;;;5113351;28;20381;-73
2022/01/17 11:27:44;;;;;;;0.40;0.40;;;5.00;99.90;;;;;;5095220;28;20468;-73
2022/01/17 11:30:10;;;;;;;0.40;0.20;;;5.10;99.90;;;;;;5113313;28;20392;-74
2022/01/17 11:32:36;;;;;;;0.40;0.32;;;5.00;99.90;;;;;;5112717;28;20373;-73
2022/01/17 11:35:03;;;;;;;0.40;0.40;;;5.10;99.90;;;;;;5113192;28;20425;-73
2022/01/17 11:37:39;;;;;;;3.20;0.80;;;5.10;99.90;;;;;;5112559;28;20405;-71
2022/01/17 11:40:10;;;;;;;0.40;0.40;;;5.30;99.90;;;;;;5095032;28;20411;-72
2022/01/17 11:42:54;;;;;;;0.47;0.47;;;5.10;99.90;;;;;;5094070;28;20963;-72
2022/01/17 11:45:22;;;;;;;0.40;0.30;;;5.10;99.90;;;;;;5113284;28;20877;-72
2022/01/17 11:47:52;;;;;;;1.30;1.20;;;5.10;99.90;;;;;;5112682;28;20426;-72
2022/01/17 11:50:30;;;;;;;0.70;0.70;;;5.40;99.90;;;;;;5113062;28;20451;-72
2022/01/17 11:53:00;;;;;;;0.40;0.30;;;5.40;99.90;;;;;;5113095;28;20391;-72
2022/01/17 11:55:44;;;;;;;0.50;0.50;;;5.50;99.90;;;;;;5096637;28;20484;-73
2022/01/17 11:58:29;;;;;;;0.40;0.30;;;5.40;99.90;;;;;;5096459;28;20407;-73
2022/01/17 12:01:01;;;;;;;0.57;0.57;;;5.60;99.90;;;;;;5092909;28;20412;-73
2022/01/17 12:03:40;;;;;;;0.40;0.20;;;5.50;99.90;;;;;;5100011;28;20399;-72
2022/01/17 12:06:37;;;;;;;0.40;0.20;;;5.60;99.90;;;;;;5077217;28;20428;-72
2022/01/17 12:09:24;;;;;;;0.40;0.22;;;5.60;99.90;;;;;;5090663;28;20400;-73
2022/01/17 12:11:56;;;;;;;0.40;0.30;;;5.60;99.90;;;;;;5097619;28;20396;-73
2022/01/17 12:14:27;;;;;;;0.50;0.50;;;5.40;99.90;;;;;;5087660;28;20514;-73
2022/01/17 12:16:54;;;;;;;0.60;0.60;;;5.40;99.90;;;;;;5054698;28;20891;-73
2022/01/17 12:19:20;;;;;;;0.60;0.60;;;5.50;99.90;;;;;;5092156;28;20378;-73
2022/01/17 12:22:03;;;;;;;0.40;0.30;;;5.50;99.90;;;;;;5081881;28;20463;-73
2022/01/17 12:24:40;;;;;;;0.40;0.30;;;5.50;99.90;;;;;;5065262;28;20875;-73
2022/01/17 12:27:13;;;;;;;0.40;0.30;;;5.60;99.90;;;;;;5088263;28;20389;-73
2022/01/17 12:29:55;;;;;;;0.70;0.45;;;5.70;99.90;;;;;;5061484;28;20845;-73
2022/01/17 12:32:23;;;;;;;0.40;0.20;;;5.80;99.90;;;;;;5073794;28;20383;-73
2022/01/17 12:35:11;;;;;;;0.40;0.20;;;6.00;99.90;;;;;;5076067;28;20475;-72
2022/01/17 12:37:51;;;;;;;0.70;0.70;;;6.00;99.90;;;;;;5057634;28;20399;-72
2022/01/17 12:40:40;;;;;;;0.40;0.20;;;5.90;99.90;;;;;;5071263;28;20376;-72
2022/01/17 12:43:16;;;;;;;0.40;0.20;;;5.80;99.90;;;;;;5068143;28;20708;-73
2022/01/17 12:45:43;;;;;;;0.50;0.50;;;6.00;99.90;;;;;;5086258;28;20760;-72
2022/01/17 12:48:21;;;;;;;0.40;0.30;;;6.00;99.90;;;;;;5077744;28;20393;-72
2022/01/17 12:50:48;;;;;;;0.83;0.77;;;5.90;99.90;;;;;;5078148;28;20383;-73
2022/01/17 12:53:17;;;;;;;0.40;0.30;;;5.90;99.90;;;;;;5069023;28;20382;-72
2022/01/17 12:55:48;;;;;;;0.40;0.30;;;6.00;99.90;;;;;;5074625;28;20406;-73
2022/01/17 12:58:17;;;;;;;1.50;1.30;;;6.10;99.90;;;;;;5081708;28;20391;-73
2022/01/17 13:01:08;;;;;;;0.40;0.20;;;6.30;99.90;;;;;;5083332;28;20762;-73
2022/01/17 13:03:37;;;;;;;0.40;0.30;;;6.10;99.90;;;;;;5063691;28;20398;-72
2022/01/17 13:06:06;;;;;;;0.40;0.30;;;5.90;99.90;;;;;;5083308;28;20410;-73
2022/01/17 13:08:32;;;;;;;0.40;0.30;;;5.90;99.90;;;;;;5063647;28;20743;-72
2022/01/17 13:11:00;;;;;;;0.50;0.50;;;5.90;99.90;;;;;;5076026;28;20471;-74
2022/01/17 13:13:26;;;;;;;0.50;0.50;;;6.10;99.90;;;;;;5088777;28;20392;-72
2022/01/17 13:16:07;;;;;;;0.40;0.30;;;6.00;99.90;;;;;;5107061;28;20420;-73
2022/01/17 13:18:33;;;;;;;0.40;0.30;;;6.00;99.90;;;;;;5099693;28;20510;-72
2022/01/17 13:21:01;;;;;;;1.30;0.60;;;5.70;99.90;;;;;;5087333;28;20793;-73
2022/01/17 13:26:38;;;;;;;0.40;0.30;;;5.80;99.90;;;;;;5109786;28;20384;-72
2022/01/17 13:29:07;;;;;;;0.40;0.20;;;6.10;99.90;;;;;;5077401;28;20870;-72
2022/01/17 13:31:33;;;;;;;0.40;0.40;;;6.10;99.90;;;;;;5092823;28;20493;-72
2022/01/17 13:34:28;;;;;;;0.40;0.30;;;6.20;99.90;;;;;;5104425;28;20535;-73
2022/01/17 13:36:56;;;;;;;0.40;0.40;;;6.10;99.90;;;;;;5104802;28;20408;-72
2022/01/17 13:39:24;;;;;;;0.40;0.20;;;6.30;99.90;;;;;;5093159;28;20436;-73